Time;durP1;ratioP1;P1;durP2;ratioP2;P2;SDS_P1;SDS_P2;PMS_P1;PMS_P2;Temp;Humidity;BMP_temperature;BMP_pressure;BME280_temperature;BME280_humidity;BME280_pressure;Samples;Min_cycle;Max_cycle;Signal;HPM_P1;HPM_P2
2022/07/01 00:01:06;;;;;;;6.90;3.30;;;;;;;20.02;85.83;100410.23;108081;1279;59932;-87
2022/07/01 00:03:34;;;;;;;3.70;2.70;;;;;;;19.99;85.91;100413.42;108013;1279;75019;-87
2022/07/01 00:06:01;;;;;;;4.30;2.90;;;;;;;19.94;86.59;100420.07;108024;1279;71447;-87
2022/07/01 00:08:28;;;;;;;5.10;3.60;;;;;;;19.90;87.32;100428.41;107824;1279;73605;-87
2022/07/01 00:10:55;;;;;;;4.30;2.90;;;;;;;19.88;87.35;100428.98;107886;1279;61460;-87
2022/07/01 00:13:22;;;;;;;7.20;3.00;;;;;;;19.86;87.45;100435.29;107878;1279;61660;-87
2022/07/01 00:15:49;;;;;;;6.70;3.50;;;;;;;19.83;88.57;100437.77;107777;1279;76290;-87
2022/07/01 00:18:16;;;;;;;5.50;3.70;;;;;;;19.78;89.25;100438.16;107703;1279;72768;-88
2022/07/01 00:20:43;;;;;;;4.60;3.50;;;;;;;19.72;90.04;100441.77;108026;1278;72080;-86
2022/07/01 00:23:10;;;;;;;7.20;3.80;;;;;;;19.68;90.63;100447.74;107895;1279;61970;-86
2022/07/01 00:25:38;;;;;;;7.00;3.50;;;;;;;19.63;90.79;100445.06;107996;1279;60177;-87
2022/07/01 00:28:05;;;;;;;4.30;3.00;;;;;;;19.59;91.04;100436.86;107894;1279;75290;-88
2022/07/01 00:30:32;;;;;;;4.80;3.30;;;;;;;19.54;90.85;100441.36;108008;1279;73188;-87
2022/07/01 00:33:00;;;;;;;5.80;3.10;;;;;;;19.50;90.02;100438.77;107770;1279;74369;-87
2022/07/01 00:35:27;;;;;;;6.60;3.20;;;;;;;19.42;89.20;100456.31;108011;1279;63111;-86
2022/07/01 00:37:53;;;;;;;4.00;2.90;;;;;;;19.32;89.07;100459.39;107882;1279;60573;-86
2022/07/01 00:40:20;;;;;;;4.90;2.70;;;;;;;19.25;89.10;100462.42;107852;1279;74965;-86
2022/07/01 00:42:47;;;;;;;4.70;3.40;;;;;;;19.19;89.14;100454.56;107903;1279;71213;-86
2022/07/01 00:45:14;;;;;;;6.90;3.40;;;;;;;19.09;89.86;100461.41;107886;1279;72654;-86
2022/07/01 00:47:43;;;;;;;4.20;3.30;;;;;;;19.00;90.56;100462.92;108028;1279;62227;-86
2022/07/01 00:50:12;;;;;;;5.90;3.10;;;;;;;18.89;91.04;100465.43;107816;1279;59373;-86
2022/07/01 00:52:41;;;;;;;2.80;2.00;;;;;;;18.82;90.79;100466.30;107911;1279;76208;-85
2022/07/01 00:55:12;;;;;;;5.10;2.00;;;;;;;18.73;90.13;100477.85;107781;1280;71113;-87
2022/07/01 00:57:41;;;;;;;4.50;2.20;;;;;;;18.65;89.31;100474.86;107866;1279;74279;-86
2022/07/01 01:00:38;;;;;;;2.50;1.70;;;;;;;18.58;88.80;100476.42;108439;1279;63191;-87
2022/07/01 01:03:06;;;;;;;3.10;1.50;;;;;;;18.52;88.72;100468.27;108458;1279;61640;-85
2022/07/01 01:05:34;;;;;;;2.90;1.80;;;;;;;18.48;88.65;100468.77;108383;1277;74925;-86
2022/07/01 01:08:01;;;;;;;6.40;2.20;;;;;;;18.45;88.77;100463.92;108040;1279;73040;-86
2022/07/01 01:10:30;;;;;;;4.30;2.30;;;;;;;18.43;88.90;100460.80;108013;1279;72486;-86
2022/07/01 01:12:57;;;;;;;2.70;2.00;;;;;;;18.39;89.66;100468.07;108007;1279;62980;-86
2022/07/01 01:15:24;;;;;;;3.00;2.10;;;;;;;18.30;90.51;100473.23;107894;1279;59664;-86
2022/07/01 01:17:51;;;;;;;4.50;2.70;;;;;;;18.24;91.46;100485.82;107205;1278;1087569;-86
2022/07/01 01:20:18;;;;;;;4.40;2.40;;;;;;;18.17;92.08;100483.50;107931;1279;72020;-87
2022/07/01 01:22:49;;;;;;;5.50;3.30;;;;;;;18.11;93.16;100502.25;107938;1279;73845;-86
2022/07/01 01:25:16;;;;;;;5.50;3.10;;;;;;;18.03;94.12;100504.82;107910;1279;62204;-86
2022/07/01 01:27:43;;;;;;;3.10;2.70;;;;;;;17.92;94.31;100516.02;107894;1279;60308;-85
2022/07/01 01:30:13;;;;;;;4.60;2.70;;;;;;;17.83;95.08;100503.81;107723;1279;74975;-87
2022/07/01 01:32:40;;;;;;;4.80;3.30;;;;;;;17.75;95.61;100506.64;108002;1279;73159;-86
2022/07/01 01:35:09;;;;;;;5.80;4.00;;;;;;;17.64;96.45;100515.30;107993;1279;73094;-85
2022/07/01 01:37:36;;;;;;;6.10;4.20;;;;;;;17.51;97.37;100506.26;107726;1279;62261;-87
2022/07/01 01:40:04;;;;;;;5.60;4.10;;;;;;;17.39;97.88;100508.52;108021;1279;60289;-87
2022/07/01 01:42:31;;;;;;;5.00;3.90;;;;;;;17.30;98.00;100511.51;107996;1279;75246;-86
2022/07/01 01:44:58;;;;;;;4.30;3.30;;;;;;;17.19;98.30;100512.20;108004;1279;72604;-86
2022/07/01 01:47:25;;;;;;;6.90;3.30;;;;;;;17.06;98.50;100512.95;107988;1279;72945;-87
2022/07/01 01:49:53;;;;;;;4.30;2.50;;;;;;;16.99;98.42;100508.94;107892;1279;62092;-86
2022/07/01 01:52:20;;;;;;;4.50;3.50;;;;;;;16.95;98.68;100508.40;107917;1279;60674;-86
2022/07/01 01:54:47;;;;;;;5.50;4.50;;;;;;;16.89;98.89;100509.12;107900;1279;76105;-87
2022/07/01 01:57:14;;;;;;;6.10;4.00;;;;;;;16.86;99.40;100504.79;108011;1278;71608;-86
2022/07/01 01:59:41;;;;;;;4.90;3.70;;;;;;;16.80;100.00;100517.11;107983;1279;71899;-85
2022/07/01 02:02:08;;;;;;;6.40;4.80;;;;;;;16.73;100.00;100529.20;107899;1279;61950;-85
2022/07/01 02:04:36;;;;;;;5.50;3.20;;;;;;;16.66;100.00;100530.89;107909;1279;61389;-86
2022/07/01 02:07:04;;;;;;;7.20;4.60;;;;;;;16.62;100.00;100530.30;107977;1279;76251;-86
2022/07/01 02:09:31;;;;;;;5.00;3.40;;;;;;;16.60;100.00;100532.60;107881;1279;71362;-87
2022/07/01 02:11:58;;;;;;;4.00;2.40;;;;;;;16.59;100.00;100532.89;107952;1279;72983;-85
2022/07/01 02:14:26;;;;;;;3.50;2.50;;;;;;;16.59;100.00;100535.23;107992;1279;62213;-85
2022/07/01 02:16:53;;;;;;;4.00;2.90;;;;;;;16.60;100.00;100535.32;108029;1279;60655;-86
2022/07/01 02:19:20;;;;;;;4.40;2.90;;;;;;;16.58;100.00;100538.84;107999;1279;74970;-85
2022/07/01 02:21:50;;;;;;;5.20;3.10;;;;;;;16.52;99.99;100554.77;107752;1280;71399;-85
2022/07/01 02:24:18;;;;;;;5.00;2.40;;;;;;;16.48;99.25;100553.41;107886;1279;73737;-86
2022/07/01 02:26:46;;;;;;;3.50;2.70;;;;;;;16.44;98.41;100561.42;107799;1279;62234;-86
2022/07/01 02:29:13;;;;;;;5.10;2.90;;;;;;;16.43;98.25;100572.20;107856;1279;60002;-87
2022/07/01 02:31:41;;;;;;;3.80;2.10;;;;;;;16.42;98.46;100576.73;107848;1279;75022;-87
2022/07/01 02:34:07;;;;;;;3.70;2.70;;;;;;;16.38;98.44;100590.43;108051;1278;72443;-84
2022/07/01 02:36:34;;;;;;;4.70;2.60;;;;;;;16.34;98.47;100589.84;107842;1279;74537;-86
2022/07/01 02:39:02;;;;;;;4.90;2.60;;;;;;;16.30;98.69;100593.20;107923;1279;62274;-86
2022/07/01 02:41:30;;;;;;;2.90;2.10;;;;;;;16.27;99.26;100595.18;108006;1278;60378;-86
2022/07/01 02:43:57;;;;;;;3.50;2.60;;;;;;;16.25;98.94;100594.11;108029;1278;75343;-86
2022/07/01 02:46:24;;;;;;;4.70;2.00;;;;;;;16.21;98.81;100601.68;107891;1279;71482;-86
2022/07/01 02:48:51;;;;;;;3.00;2.10;;;;;;;16.16;98.81;100605.58;107982;1279;73262;-85
2022/07/01 02:51:19;;;;;;;3.80;1.20;;;;;;;16.12;98.41;100602.85;107890;1279;61826;-85
2022/07/01 02:53:46;;;;;;;3.60;1.50;;;;;;;16.09;97.63;100602.58;107941;1279;61636;-86
2022/07/01 02:56:13;;;;;;;1.90;1.20;;;;;;;16.09;97.54;100600.43;107781;1279;75960;-86
2022/07/01 02:58:40;;;;;;;2.00;1.10;;;;;;;16.10;97.72;100604.37;108025;1279;71947;-85
2022/07/01 03:01:07;;;;;;;1.60;1.10;;;;;;;16.11;97.55;100611.99;108069;1279;72937;-86
2022/07/01 03:03:34;;;;;;;2.00;1.10;;;;;;;16.11;97.06;100620.55;107750;1278;63073;-86
2022/07/01 03:06:01;;;;;;;2.10;1.20;;;;;;;16.10;96.80;100633.31;107767;1279;60296;-86
2022/07/01 03:08:28;;;;;;;1.40;0.90;;;;;;;16.09;96.65;100633.41;107840;1279;73863;-86
2022/07/01 03:10:55;;;;;;;2.60;1.30;;;;;;;16.09;96.56;100644.19;108021;1279;72545;-85
2022/07/01 03:13:22;;;;;;;1.60;1.00;;;;;;;16.08;96.60;100648.77;107990;1279;73219;-86
2022/07/01 03:15:49;;;;;;;3.30;1.30;;;;;;;16.07;96.44;100651.78;107875;1279;63312;-86
2022/07/01 03:18:17;;;;;;;2.40;1.60;;;;;;;16.03;96.20;100653.69;108037;1279;60573;-85
2022/07/01 03:20:44;;;;;;;3.00;1.80;;;;;;;15.98;95.98;100663.91;108051;1279;75696;-86
2022/07/01 03:23:11;;;;;;;3.40;1.60;;;;;;;15.93;95.77;100678.17;108099;1279;71968;-86
2022/07/01 03:25:39;;;;;;;1.80;1.20;;;;;;;15.90;95.42;100681.71;107895;1279;73322;-86
2022/07/01 03:28:06;;;;;;;2.60;1.70;;;;;;;15.89;95.44;100690.40;107910;1279;62465;-86
2022/07/01 03:30:34;;;;;;;3.10;2.10;;;;;;;15.88;95.46;100700.58;107980;1279;60233;-86
2022/07/01 03:33:01;;;;;;;3.30;1.50;;;;;;;15.85;94.46;100718.98;107728;1279;76023;-86
2022/07/01 03:35:45;;;;;;;3.60;2.30;;;;;;;15.79;94.35;100711.91;107953;1280;72430;-86
2022/07/01 03:38:12;;;;;;;4.30;2.00;;;;;;;15.75;94.29;100705.34;107927;1278;74108;-87
2022/07/01 03:40:40;;;;;;;3.30;2.10;;;;;;;15.71;94.53;100722.23;107724;1279;63336;-85
2022/07/01 03:43:07;;;;;;;3.40;2.50;;;;;;;15.68;94.47;100723.67;107968;1280;59323;-86
2022/07/01 03:45:34;;;;;;;3.60;2.60;;;;;;;15.67;94.51;100719.06;107987;1279;73767;-85
2022/07/01 03:48:04;;;;;;;4.10;1.60;;;;;;;15.66;94.46;100729.18;108026;1279;71571;-85
2022/07/01 03:50:31;;;;;;;4.10;1.40;;;;;;;15.64;93.96;100725.39;108064;1279;73394;-86
2022/07/01 03:55:43;;;;;;;2.00;1.60;;;;;;;15.60;93.21;100720.98;108011;1279;62132;-85
2022/07/01 03:58:10;;;;;;;3.00;1.70;;;;;;;15.59;93.31;100735.23;108035;1279;74918;-85
2022/07/01 04:00:38;;;;;;;2.70;1.90;;;;;;;15.54;92.74;100732.98;107979;1279;72618;-86
2022/07/01 04:03:06;;;;;;;4.30;1.90;;;;;;;15.47;93.60;100744.48;107960;1279;74238;-86
2022/07/01 04:05:36;;;;;;;4.20;2.10;;;;;;;15.39;94.40;100745.03;108012;1279;63007;-86
2022/07/01 04:08:05;;;;;;;2.50;1.80;;;;;;;15.33;95.50;100752.64;107963;1281;60749;-87
2022/07/01 04:10:33;;;;;;;3.70;1.90;;;;;;;15.23;96.52;100762.58;108009;1278;74926;-85
2022/07/01 04:13:02;;;;;;;3.80;1.70;;;;;;;15.13;97.76;100758.12;107940;1280;71370;-85
2022/07/01 04:15:49;;;;;;;2.60;1.80;;;;;;;15.00;99.34;100754.48;107958;1279;76395;-85
2022/07/01 04:18:16;;;;;;;2.40;1.60;;;;;;;14.90;100.00;100751.55;108056;1279;64106;-84
2022/07/01 04:22:32;;;;;;;3.60;1.80;;;;;;;14.80;100.00;100737.96;108446;1279;61598;-87
2022/07/01 04:23:33;;;;;;;3.70;1.70;;;;;;;14.71;100.00;100736.86;108279;1279;74906;-87
2022/07/01 04:26:00;;;;;;;2.40;1.80;;;;;;;14.62;100.00;100730.60;108148;1280;71600;-88
2022/07/01 04:28:47;;;;;;;3.70;2.20;;;;;;;14.53;100.00;100735.02;107903;1279;74554;-87
2022/07/01 04:31:17;;;;;;;2.10;1.50;;;;;;;14.48;100.00;100738.56;108120;1279;62639;-88
2022/07/01 04:33:44;;;;;;;4.50;1.90;;;;;;;14.43;100.00;100737.11;108194;1279;60403;-88
2022/07/01 04:36:12;;;;;;;2.70;1.80;;;;;;;14.41;100.00;100731.73;108090;1280;74613;-89
2022/07/01 05:28:26;;;;;;;2.80;1.90;;;;;;;14.68;100.00;100769.23;108137;1277;76078;-81
2022/07/01 05:30:53;;;;;;;3.00;1.80;;;;;;;14.66;100.00;100774.11;107857;1279;71406;-82
2022/07/01 05:33:21;;;;;;;4.00;1.50;;;;;;;14.65;100.00;100781.18;107928;1277;73926;-81
2022/07/01 05:35:54;;;;;;;4.40;2.20;;;;;;;14.64;100.00;100784.90;107948;1279;62280;-81
2022/07/01 05:38:21;;;;;;;3.50;1.90;;;;;;;14.64;100.00;100796.73;108043;1277;61466;-82
2022/07/01 05:40:54;;;;;;;5.50;1.70;;;;;;;14.65;100.00;100792.05;108028;1278;75941;-82
2022/07/01 05:43:30;;;;;;;3.10;2.10;;;;;;;14.67;100.00;100783.36;108087;1277;71607;-84
2022/07/01 05:45:57;;;;;;;3.30;1.90;;;;;;;14.70;100.00;100786.69;107979;1278;72920;-79
2022/07/01 05:48:25;;;;;;;4.10;2.70;;;;;;;14.71;100.00;100794.67;107959;1277;62056;-78
2022/07/01 05:50:52;;;;;;;3.40;2.10;;;;;;;14.72;100.00;100800.34;107740;1277;60547;-79
2022/07/01 05:53:20;;;;;;;6.10;2.70;;;;;;;14.72;100.00;100807.95;108092;1277;76305;-79
2022/07/01 05:55:53;;;;;;;5.40;2.60;;;;;;;14.71;100.00;100816.20;108006;1277;72571;-79
2022/07/01 05:58:35;;;;;;;;;;;;;;;;;;;;;
2022/07/01 06:01:05;;;;;;;5.80;3.50;;;;;;;14.67;99.91;100818.44;107988;1278;62441;-79
2022/07/01 06:03:45;;;;;;;5.40;3.00;;;;;;;14.68;99.74;100819.80;108096;1278;61967;-79
2022/07/01 06:06:12;;;;;;;5.40;3.80;;;;;;;14.68;99.41;100829.16;108071;1277;75927;-79
2022/07/01 06:09:00;;;;;;;5.40;3.30;;;;;;;14.70;99.03;100830.27;108032;1277;72475;-79
2022/07/01 06:11:31;;;;;;;6.50;3.50;;;;;;;14.69;98.60;100828.23;107885;1278;73103;-79
2022/07/01 06:13:58;;;;;;;5.90;3.50;;;;;;;14.70;98.99;100817.67;108091;1277;62234;-79
2022/07/01 06:16:28;;;;;;;6.20;3.40;;;;;;;14.71;99.11;100808.85;108086;1277;60395;-79
2022/07/01 06:18:58;;;;;;;5.40;3.90;;;;;;;14.71;98.79;100809.30;108071;1277;75101;-79
2022/07/01 06:21:26;;;;;;;4.50;3.50;;;;;;;14.72;98.58;100809.21;108028;1279;71574;-79
2022/07/01 06:23:53;;;;;;;6.30;3.00;;;;;;;14.72;98.67;100797.09;108067;1277;72339;-79
2022/07/01 06:26:26;;;;;;;6.00;3.50;;;;;;;14.73;97.80;100801.73;107941;1278;62211;-79
2022/07/01 06:28:53;;;;;;;6.10;3.60;;;;;;;14.75;96.85;100803.63;108048;1277;60595;-79
2022/07/01 06:31:23;;;;;;;5.00;3.10;;;;;;;14.78;96.45;100806.58;108095;1277;74079;-79
2022/07/01 06:33:51;;;;;;;5.70;3.10;;;;;;;14.81;95.60;100801.73;107911;1278;71915;-79
2022/07/01 06:36:18;;;;;;;4.90;4.00;;;;;;;14.84;95.26;100801.83;107708;1277;72973;-79
2022/07/01 06:38:45;;;;;;;6.20;3.50;;;;;;;14.90;95.45;100800.24;108021;1277;62993;-79
2022/07/01 06:41:28;;;;;;;4.50;2.90;;;;;;;14.94;94.57;100798.41;107924;1277;60437;-79
2022/07/01 06:44:02;;;;;;;3.10;2.20;;;;;;;14.96;94.65;100803.09;108056;1277;76289;-79
2022/07/01 06:46:30;;;;;;;3.90;2.10;;;;;;;14.98;94.44;100814.64;108081;1277;71424;-79
2022/07/01 06:48:58;;;;;;;5.20;3.10;;;;;;;14.98;94.52;100822.18;108055;1277;73821;-79
2022/07/01 06:51:26;;;;;;;3.90;3.20;;;;;;;14.99;94.52;100829.95;108102;1277;62396;-79
2022/07/01 06:54:02;;;;;;;3.90;2.90;;;;;;;15.02;94.87;100827.64;108063;1277;60597;-80
2022/07/01 06:56:36;;;;;;;4.70;2.10;;;;;;;15.08;94.78;100828.33;107972;1277;75088;-79
2022/07/01 06:59:04;;;;;;;8.40;5.10;;;;;;;15.12;94.21;100828.36;108141;1277;71484;-79
2022/07/01 07:01:54;;;;;;;4.60;3.00;;;;;;;15.17;93.74;100819.67;107761;1278;74069;-82
2022/07/01 07:04:24;;;;;;;4.30;2.70;;;;;;;15.24;93.73;100816.77;108104;1277;63507;-85
2022/07/01 07:07:20;;;;;;;3.80;3.10;;;;;;;15.32;93.83;100820.36;108013;1277;62019;-84
2022/07/01 07:09:49;;;;;;;4.70;2.40;;;;;;;15.36;92.86;100830.02;108127;1277;74878;-84
2022/07/01 07:12:17;;;;;;;4.00;3.10;;;;;;;15.39;92.50;100826.41;108029;1278;71394;-85
2022/07/01 07:14:44;;;;;;;7.80;3.10;;;;;;;15.42;92.98;100823.09;108094;1277;74177;-84
2022/07/01 07:17:11;;;;;;;6.40;3.10;;;;;;;15.47;93.16;100824.73;107897;1278;63828;-85
2022/07/01 07:19:46;;;;;;;4.10;2.30;;;;;;;15.53;93.49;100823.05;108011;1277;60575;-84
2022/07/01 07:22:19;;;;;;;3.60;2.70;;;;;;;15.59;93.05;100821.84;108115;1277;75157;-84
2022/07/01 07:24:46;;;;;;;8.30;3.50;;;;;;;15.61;92.38;100822.20;107740;1279;72497;-85
2022/07/01 07:27:17;;;;;;;3.90;3.20;;;;;;;15.62;91.83;100833.42;107994;1277;72948;-85
2022/07/01 07:29:46;;;;;;;4.50;3.30;;;;;;;15.62;91.93;100839.52;107864;1278;61141;-85
2022/07/01 07:32:16;;;;;;;4.70;2.80;;;;;;;15.60;91.85;100852.98;107787;1278;60665;-85
2022/07/01 07:34:45;;;;;;;6.30;2.90;;;;;;;15.54;92.19;100874.68;107956;1278;75101;-85
2022/07/01 07:37:12;;;;;;;5.10;3.70;;;;;;;15.50;93.43;100882.46;108017;1278;71378;-85
2022/07/01 07:39:40;;;;;;;5.20;3.70;;;;;;;15.46;94.20;100889.77;107938;1279;73447;-84
2022/07/01 07:42:13;;;;;;;4.40;3.50;;;;;;;15.41;94.22;100891.96;107995;1278;62315;-84
2022/07/01 07:44:40;;;;;;;5.30;3.60;;;;;;;15.36;94.04;100903.19;107804;1277;61620;-84
2022/07/01 07:47:08;;;;;;;5.90;4.00;;;;;;;15.29;94.64;100910.86;108026;1278;75306;-84
2022/07/01 07:49:35;;;;;;;9.10;4.40;;;;;;;15.21;94.51;100921.19;108114;1277;71575;-83
2022/07/01 07:52:02;;;;;;;5.50;4.30;;;;;;;15.18;94.76;100931.29;108091;1277;73183;-83
2022/07/01 07:54:35;;;;;;;6.80;5.30;;;;;;;15.12;94.40;100939.66;107881;1277;62185;-82
2022/07/01 07:57:03;;;;;;;5.90;4.20;;;;;;;15.01;94.50;100952.09;108085;1277;58953;-83
2022/07/01 07:59:29;;;;;;;6.70;5.30;;;;;;;14.91;95.04;100950.37;107995;1278;74433;-83
2022/07/01 08:01:57;;;;;;;5.30;4.80;;;;;;;14.86;96.44;100946.23;107797;1279;71328;-83
2022/07/01 08:04:27;;;;;;;7.90;6.00;;;;;;;14.82;96.45;100944.26;107989;1278;74832;-83
2022/07/01 08:06:54;;;;;;;8.50;5.80;;;;;;;14.78;96.97;100938.62;107667;1278;63989;-83
2022/07/01 08:09:21;;;;;;;8.20;6.50;;;;;;;14.77;97.40;100934.70;108027;1278;60660;-83
2022/07/01 08:11:51;;;;;;;7.50;5.60;;;;;;;14.76;98.36;100938.06;107757;1278;74991;-83
2022/07/01 08:14:18;;;;;;;8.30;5.90;;;;;;;14.74;98.82;100934.73;108006;1277;72398;-83
2022/07/01 08:16:49;;;;;;;6.50;5.20;;;;;;;14.77;98.93;100930.06;108075;1279;72971;-83
2022/07/01 08:19:17;;;;;;;6.80;5.50;;;;;;;14.79;99.18;100923.83;108005;1277;62242;-83
2022/07/01 08:21:45;;;;;;;7.90;6.30;;;;;;;14.83;99.57;100919.41;108031;1278;61143;-83
2022/07/01 08:24:12;;;;;;;6.10;4.20;;;;;;;14.86;99.93;100914.34;107795;1278;75248;-83
2022/07/01 08:26:39;;;;;;;5.90;5.10;;;;;;;14.87;100.00;100904.77;107987;1278;72488;-83
2022/07/01 08:29:07;;;;;;;5.80;4.60;;;;;;;14.91;99.54;100898.95;108045;1278;74576;-83
2022/07/01 08:31:34;;;;;;;10.70;5.40;;;;;;;14.94;99.03;100904.06;108121;1277;62996;-82
2022/07/01 08:34:02;;;;;;;7.80;4.90;;;;;;;14.98;99.49;100903.91;108005;1278;61670;-83
2022/07/01 08:36:29;;;;;;;7.20;4.00;;;;;;;15.00;98.57;100900.88;107777;1278;75948;-83
2022/07/01 08:38:57;;;;;;;4.50;3.70;;;;;;;15.04;97.82;100898.67;107966;1278;71486;-82
2022/07/01 08:41:24;;;;;;;4.50;3.30;;;;;;;15.06;97.17;100896.91;108090;1277;74209;-83
2022/07/01 08:43:51;;;;;;;7.20;4.40;;;;;;;15.07;96.14;100905.83;107985;1278;62029;-82
2022/07/01 08:46:18;;;;;;;3.90;3.20;;;;;;;15.11;95.19;100907.05;108136;1277;61672;-84
2022/07/01 08:48:45;;;;;;;5.80;4.90;;;;;;;15.15;95.22;100910.07;107939;1279;75105;-83
2022/07/01 08:51:12;;;;;;;6.50;5.50;;;;;;;15.21;95.03;100919.22;108053;1277;71399;-81
2022/07/01 08:53:39;;;;;;;5.60;4.20;;;;;;;15.24;94.05;100926.30;107968;1279;74238;-83
2022/07/01 08:58:52;;;;;;;7.40;4.20;;;;;;;15.27;93.79;100945.76;108026;1279;61505;-82
2022/07/01 09:01:24;;;;;;;6.40;5.30;;;;;;;15.25;93.63;100947.23;108184;1278;75335;-82
2022/07/01 09:04:12;;;;;;;6.20;5.40;;;;;;;15.22;93.24;100954.04;108192;1278;71431;-82
2022/07/01 09:06:40;;;;;;;5.80;4.40;;;;;;;15.17;92.16;100961.95;108235;1277;72008;-82
2022/07/01 09:09:19;;;;;;;6.90;4.40;;;;;;;15.16;91.61;100956.61;107916;1277;63302;-83
2022/07/01 09:11:57;;;;;;;5.50;4.70;;;;;;;15.17;91.21;100959.36;107922;1277;62131;-83
2022/07/01 09:14:25;;;;;;;4.20;3.40;;;;;;;15.24;90.96;100965.27;107939;1278;74952;-83
2022/07/01 09:16:58;;;;;;;6.00;4.00;;;;;;;15.33;90.27;100976.14;107943;1277;72805;-83
2022/07/01 09:19:27;;;;;;;4.50;3.70;;;;;;;15.40;89.97;100978.83;107744;1277;72951;-83
2022/07/01 09:22:01;;;;;;;6.70;4.10;;;;;;;15.47;90.38;100975.20;107761;1279;62257;-83
2022/07/01 09:24:32;;;;;;;4.10;2.80;;;;;;;15.61;90.10;100973.39;108029;1277;61359;-83
2022/07/01 09:27:18;;;;;;;5.80;3.60;;;;;;;15.78;89.99;100981.73;107925;1279;75258;-83
2022/07/01 09:30:02;;;;;;;6.10;4.20;;;;;;;15.88;88.78;100993.40;108014;1277;71175;-83
2022/07/01 09:32:35;;;;;;;4.20;3.80;;;;;;;15.88;87.54;100994.61;108133;1277;73125;-83
2022/07/01 09:35:21;;;;;;;4.40;3.90;;;;;;;15.86;87.17;100997.89;107808;1278;63198;-83
2022/07/01 09:37:55;;;;;;;6.20;4.00;;;;;;;15.86;87.78;101000.92;108021;1278;61541;-84
2022/07/01 09:40:24;;;;;;;4.60;3.20;;;;;;;15.84;86.21;100996.33;108048;1279;75083;-84
2022/07/01 09:43:05;;;;;;;5.50;3.10;;;;;;;15.86;86.16;100990.36;108098;1277;71981;-83
2022/07/01 09:45:36;;;;;;;3.50;2.70;;;;;;;15.85;83.87;100993.54;108237;1278;73195;-83
2022/07/01 09:48:04;;;;;;;4.60;2.40;;;;;;;15.84;82.97;100999.45;108023;1278;62974;-83
2022/07/01 09:50:36;;;;;;;5.00;3.20;;;;;;;15.83;83.57;101000.59;108046;1278;61719;-85
2022/07/01 09:53:03;;;;;;;5.20;3.80;;;;;;;15.83;83.17;101000.15;107797;1278;74910;-85
2022/07/01 09:55:33;;;;;;;6.00;4.00;;;;;;;15.85;83.61;101003.36;107979;1278;72418;-85
2022/07/01 09:58:01;;;;;;;5.60;3.50;;;;;;;15.84;83.15;101008.52;107814;1278;74240;-84
2022/07/01 10:00:31;;;;;;;5.30;3.40;;;;;;;15.83;83.83;101013.29;108010;1278;63848;-85
2022/07/01 10:03:39;;;;;;;3.90;3.30;;;;;;;15.84;84.00;101014.73;107994;1278;60823;-85
2022/07/01 10:06:38;;;;;;;5.30;3.50;;;;;;;15.86;83.61;101015.86;107962;1277;74963;-85
2022/07/01 10:09:25;;;;;;;5.40;3.60;;;;;;;15.89;84.02;101019.47;107988;1279;71337;-85
2022/07/01 10:12:42;;;;;;;9.70;5.00;;;;;;;15.95;84.14;101018.56;107950;1278;73022;-85
2022/07/01 10:15:11;;;;;;;5.30;3.80;;;;;;;15.96;82.87;101026.39;108092;1277;62490;-85
2022/07/01 10:17:44;;;;;;;6.10;3.70;;;;;;;16.00;83.05;101029.13;107980;1278;59086;-85
2022/07/01 10:20:15;;;;;;;7.50;5.20;;;;;;;16.00;81.64;101027.93;107743;1278;74661;-84
2022/07/01 10:23:09;;;;;;;6.90;4.90;;;;;;;16.04;80.84;101029.70;107946;1277;70845;-85
2022/07/01 10:25:53;;;;;;;7.70;5.50;;;;;;;16.12;80.29;101029.69;107935;1277;74059;-85
2022/07/01 10:29:40;;;;;;;8.80;4.30;;;;;;;16.30;79.91;101022.95;107598;1278;63490;-85
2022/07/01 10:31:46;;;;;;;8.50;4.60;;;;;;;16.58;78.71;101016.00;107860;1277;62215;-85
2022/07/01 10:34:24;;;;;;;8.00;5.10;;;;;;;16.71;78.05;101021.09;108136;1277;74668;-85
2022/07/01 10:37:16;;;;;;;9.70;5.60;;;;;;;16.75;77.22;101027.40;108082;1277;70574;-85
2022/07/01 10:40:03;;;;;;;8.80;5.30;;;;;;;16.74;77.36;101025.30;107959;1277;72322;-85
2022/07/01 10:42:59;;;;;;;9.40;4.10;;;;;;;16.74;77.64;101022.86;107827;1278;63190;-85
2022/07/01 10:45:46;;;;;;;7.20;4.60;;;;;;;16.80;77.52;101019.11;108097;1277;60879;-85
2022/07/01 10:48:23;;;;;;;6.20;4.30;;;;;;;16.82;76.98;101014.30;107843;1277;75606;-84
2022/07/01 10:50:51;;;;;;;5.30;3.70;;;;;;;16.83;76.45;101015.70;107992;1277;72015;-84
2022/07/01 10:53:19;;;;;;;6.20;4.50;;;;;;;16.90;76.79;101018.39;107809;1277;73120;-83
2022/07/01 10:55:51;;;;;;;10.50;5.00;;;;;;;17.01;77.02;101008.10;108082;1277;62601;-83
2022/07/01 10:58:38;;;;;;;7.40;5.20;;;;;;;17.18;76.48;101005.65;107929;1277;60649;-83
2022/07/01 11:01:08;;;;;;;6.00;4.40;;;;;;;17.28;75.45;101011.69;107968;1277;76018;-86
2022/07/01 11:03:39;;;;;;;5.00;3.20;;;;;;;17.38;74.62;101002.81;107962;1277;72486;-87
2022/07/01 11:06:10;;;;;;;6.40;5.20;;;;;;;17.48;74.24;101000.84;107819;1277;73158;-88
2022/07/01 11:08:41;;;;;;;8.00;4.90;;;;;;;17.59;73.70;100995.47;107811;1278;62569;-87
2022/07/01 11:11:11;;;;;;;7.50;5.20;;;;;;;17.70;72.58;101000.89;107964;1278;60319;-88
2022/07/01 11:13:38;;;;;;;6.60;4.10;;;;;;;17.87;72.54;101006.66;108124;1277;73630;-88
2022/07/01 11:16:09;;;;;;;7.00;5.40;;;;;;;18.02;71.73;101009.91;107789;1278;71443;-88
2022/07/01 11:18:38;;;;;;;7.80;5.10;;;;;;;18.27;71.00;101012.64;107828;1278;73172;-88
2022/07/01 11:21:09;;;;;;;5.20;4.10;;;;;;;18.57;70.76;101010.70;108103;1277;62604;-88
2022/07/01 11:23:37;;;;;;;6.60;4.20;;;;;;;18.81;69.65;101010.95;107814;1277;61284;-87
2022/07/01 11:26:19;;;;;;;7.50;5.50;;;;;;;18.97;68.39;101010.30;107978;1277;74919;-88
2022/07/01 11:28:46;;;;;;;7.40;5.20;;;;;;;18.97;67.54;101008.56;108148;1277;71620;-88
2022/07/01 11:31:14;;;;;;;7.80;4.60;;;;;;;18.91;67.91;101007.25;108155;1277;72984;-88
2022/07/01 11:33:51;;;;;;;8.20;5.60;;;;;;;18.69;67.71;101007.86;107818;1277;61933;-88
2022/07/01 11:39:27;;;;;;;6.90;5.30;;;;;;;18.23;69.40;101013.48;108188;1277;75965;-88
2022/07/01 11:41:59;;;;;;;6.30;3.70;;;;;;;17.97;70.30;101013.08;108050;1278;70704;-88
2022/07/01 11:44:34;;;;;;;6.40;4.40;;;;;;;17.78;71.46;101014.70;108036;1278;73264;-88
2022/07/01 11:47:05;;;;;;;9.50;4.70;;;;;;;17.59;72.11;101020.27;108183;1277;65528;-88
2022/07/01 11:49:33;;;;;;;6.00;3.60;;;;;;;17.46;73.32;101019.38;107887;1277;62152;-88
2022/07/01 11:52:04;;;;;;;8.30;5.40;;;;;;;17.34;73.96;101017.28;108129;1277;76286;-88
2022/07/01 11:54:39;;;;;;;7.40;4.70;;;;;;;17.30;74.23;101021.27;107985;1277;71211;-88
2022/07/01 11:57:29;;;;;;;6.70;5.00;;;;;;;17.35;74.63;101016.33;108058;1278;73007;-88
2022/07/01 12:00:07;;;;;;;9.10;4.90;;;;;;;17.41;74.06;101025.17;108014;1277;62589;-87
2022/07/01 12:02:34;;;;;;;7.90;6.40;;;;;;;17.44;74.12;101022.52;108345;1277;60614;-86
2022/07/01 12:05:02;;;;;;;11.20;6.10;;;;;;;17.44;73.94;101023.59;108436;1277;75358;-86
2022/07/01 12:07:34;;;;;;;4.50;4.10;;;;;;;17.45;74.19;101024.34;108204;1278;71460;-86
2022/07/01 12:10:01;;;;;;;6.90;5.00;;;;;;;17.43;73.65;101029.98;108247;1279;74427;-86
2022/07/01 12:12:28;;;;;;;6.50;4.00;;;;;;;17.44;73.51;101033.63;108023;1278;62774;-86
2022/07/01 12:14:57;;;;;;;6.80;4.40;;;;;;;17.43;72.47;101036.47;108260;1279;60390;-86
2022/07/01 12:17:26;;;;;;;6.00;3.70;;;;;;;17.45;72.33;101040.30;108082;1278;74679;-87
2022/07/01 12:19:56;;;;;;;4.80;3.40;;;;;;;17.47;71.22;101050.00;108375;1279;72488;-86
2022/07/01 12:22:25;;;;;;;6.00;3.00;;;;;;;17.48;70.14;101056.55;108054;1278;72402;-86
2022/07/01 12:25:06;;;;;;;4.20;3.00;;;;;;;17.53;69.35;101058.88;107984;1278;63231;-86
2022/07/01 12:27:38;;;;;;;5.70;3.20;;;;;;;17.59;68.83;101057.22;108014;1279;60962;-87
2022/07/01 12:30:07;;;;;;;4.10;2.10;;;;;;;17.62;68.44;101067.69;108001;1278;77126;-86
2022/07/01 12:32:38;;;;;;;3.30;2.50;;;;;;;17.66;68.92;101064.28;107871;1279;72571;-86